.
WxDataArchive / Data Records for 2008-07-30
2008-07-29 July 2008 2008-07-31

Data Records for Wednesday, 30 July 2008

Time	Temp	Chill	HIndex	Humid	Dewpt	 Wind 	HiWind	WindDir	Rain 	Barom 
-----	----	-----	------	-----	-----	------	------	-------	-----	----- 
00:00	76.3	76.3	78.0	70	65.8	0	0	---	0.00	29.774 
00:05	76.5	76.5	78.2	70	66.0	0	0	---	0.00	29.771 
00:10	76.5	76.5	78.2	69	65.6	0	1	45	0.00	29.765 
00:15	76.8	76.8	78.6	69	65.8	0	1	45	0.00	29.762 
00:20	77.0	77.0	78.8	69	66.0	0	2	45	0.00	29.762 
00:25	77.0	77.0	78.8	69	66.0	0	1	45	0.00	29.760 
00:30	77.2	77.2	79.0	69	66.2	0	1	45	0.00	29.758 
00:35	77.2	77.2	79.0	69	66.2	0	1	45	0.00	29.757 
00:40	77.2	77.2	79.0	69	66.2	0	1	45	0.00	29.753 
00:45	77.2	77.2	79.0	69	66.2	0	1	45	0.00	29.753 
00:50	77.2	77.2	79.0	69	66.2	0	1	45	0.00	29.752 
00:55	77.2	77.2	79.0	69	66.2	0	1	45	0.00	29.751 
01:00	77.2	77.2	79.0	70	66.6	0	2	45	0.00	29.750 
01:05	77.4	77.4	79.3	71	67.2	0	2	45	0.00	29.749 
01:10	77.4	77.4	79.3	71	67.2	1	4	248	0.00	29.749 
01:15	77.4	77.4	79.3	72	67.6	1	3	248	0.00	29.749 
01:20	77.4	77.4	79.3	72	67.6	1	2	248	0.00	29.747 
01:25	77.4	77.4	79.3	73	68.0	1	2	248	0.00	29.749 
01:30	77.2	77.2	79.0	73	67.9	0	2	248	0.00	29.745 
01:35	77.2	77.2	79.0	74	68.3	0	2	248	0.00	29.744 
01:40	77.0	77.0	78.7	74	68.1	1	3	248	0.00	29.743 
01:45	77.0	77.0	78.7	74	68.1	1	3	270	0.00	29.744 
01:50	77.0	77.0	78.7	74	68.1	0	3	248	0.00	29.744 
01:55	77.0	77.0	78.7	74	68.1	1	2	248	0.00	29.745 
02:00	76.8	76.8	78.4	74	67.9	1	2	248	0.00	29.745 
02:05	76.8	76.8	78.4	74	67.9	0	2	248	0.00	29.744 
02:10	76.8	76.8	78.5	73	67.5	0	2	248	0.00	29.729 
02:15	76.7	76.7	78.3	73	67.4	0	1	248	0.00	29.713 
02:20	76.5	76.5	78.1	74	67.6	0	1	248	0.00	29.712 
02:25	76.5	76.5	78.1	74	67.6	0	1	248	0.00	29.717 
02:30	76.5	76.5	78.1	74	67.6	0	1	248	0.00	29.718 
02:35	76.3	76.3	77.8	74	67.4	0	1	248	0.00	29.725 
02:40	76.3	76.3	77.8	74	67.4	0	0	---	0.00	29.727 
02:45	76.1	76.1	77.5	75	67.6	0	0	---	0.00	29.729 
02:50	76.0	76.0	77.4	75	67.5	0	0	---	0.00	29.727 
02:55	76.0	76.0	77.3	76	67.9	0	0	---	0.00	29.727 
03:00	75.8	75.8	77.0	76	67.7	0	2	248	0.00	29.729 
03:05	75.8	75.8	77.0	76	67.7	0	2	248	0.00	29.731 
03:10	75.6	75.6	76.8	76	67.5	0	1	248	0.00	29.732 
03:15	75.4	75.4	76.6	75	66.9	0	1	248	0.00	29.731 
03:20	75.4	75.4	76.6	75	66.9	0	1	248	0.00	29.733 
03:25	75.3	75.3	76.5	75	66.8	0	1	248	0.00	29.730 
03:30	75.3	75.3	76.5	75	66.8	0	1	248	0.00	29.731 
03:35	75.3	75.3	76.3	77	67.6	0	1	248	0.00	29.734 
03:40	74.7	74.7	74.7	78	67.4	0	1	248	0.00	29.735 
03:45	74.4	74.4	74.4	80	67.8	0	0	---	0.00	29.733 
03:50	73.9	73.9	73.9	81	67.7	0	0	---	0.01	29.730 
03:55	73.7	73.7	73.7	83	68.2	0	0	---	0.01	29.730 
04:00	73.2	73.2	73.2	84	68.1	0	0	---	0.00	29.732 
04:05	72.8	72.8	72.8	86	68.4	0	0	---	0.00	29.730 
04:10	72.5	72.5	72.5	87	68.4	0	0	---	0.00	29.729 
04:15	72.3	72.3	72.3	88	68.5	0	1	248	0.00	29.730 
04:20	72.1	72.1	72.1	89	68.7	0	0	---	0.00	29.726 
04:25	72.0	72.0	72.0	90	68.9	0	0	---	0.00	29.719 
04:30	71.8	71.8	71.8	90	68.7	0	0	---	0.00	29.717 
04:35	71.6	71.6	71.6	90	68.5	0	0	---	0.00	29.715 
04:40	71.6	71.6	71.6	91	68.8	0	0	---	0.00	29.714 
04:45	71.5	71.5	71.5	91	68.7	0	0	---	0.00	29.713 
04:50	71.5	71.5	71.5	91	68.7	0	0	---	0.00	29.713 
04:55	71.5	71.5	71.5	92	69.0	0	0	---	0.00	29.710 
05:00	71.3	71.3	71.3	92	68.8	0	0	---	0.00	29.710 
05:05	71.3	71.3	71.3	92	68.8	0	0	---	0.00	29.709 
05:10	71.3	71.3	71.3	92	68.8	0	0	---	0.00	29.708 
05:15	71.3	71.3	71.3	92	68.8	0	0	---	0.00	29.707 
05:20	71.3	71.3	71.3	93	69.2	0	0	---	0.00	29.707 
05:25	71.3	71.3	71.3	93	69.2	0	0	---	0.00	29.704 
05:30	71.3	71.3	71.3	93	69.2	0	0	---	0.00	29.704 
05:35	71.1	71.1	71.1	93	69.0	0	0	---	0.00	29.703 
05:40	71.3	71.3	71.3	93	69.2	0	0	---	0.00	29.704 
05:45	71.3	71.3	71.3	93	69.2	0	0	---	0.00	29.706 
05:50	71.3	71.3	71.3	93	69.2	0	1	248	0.00	29.708 
05:55	71.3	71.3	71.3	94	69.5	0	0	---	0.00	29.708 
06:00	71.5	71.5	71.5	94	69.7	0	2	248	0.00	29.713 
06:05	71.5	71.5	71.5	94	69.7	0	1	248	0.00	29.714 
06:10	71.6	71.6	71.6	94	69.8	0	1	248	0.00	29.716 
06:15	71.6	71.6	71.6	94	69.8	0	2	248	0.00	29.717 
06:20	71.6	71.6	71.6	94	69.8	0	1	248	0.00	29.718 
06:25	71.6	71.6	71.6	93	69.5	0	1	248	0.00	29.718 
06:30	71.6	71.6	71.6	93	69.5	0	2	248	0.00	29.718 
06:35	71.8	71.8	71.8	92	69.3	0	2	248	0.00	29.719 
06:40	71.8	71.8	71.8	92	69.3	0	2	248	0.00	29.719 
06:45	71.8	71.8	71.8	91	69.0	0	1	248	0.00	29.720 
06:50	71.8	71.8	71.8	91	69.0	0	1	248	0.00	29.721 
06:55	71.8	71.8	71.8	90	68.7	0	2	248	0.00	29.722 
07:00	71.8	71.8	71.8	89	68.4	0	1	248	0.00	29.722 
07:05	72.0	72.0	72.0	89	68.6	0	2	248	0.00	29.729 
07:10	72.3	72.3	72.3	88	68.5	0	2	248	0.00	29.731 
07:15	72.5	72.5	72.5	87	68.4	0	2	248	0.00	29.734 
07:20	72.8	72.8	72.8	87	68.7	0	2	248	0.00	29.735 
07:25	73.2	73.2	73.2	86	68.7	0	1	248	0.00	29.736 
07:30	73.5	73.5	73.5	84	68.4	0	1	248	0.00	29.737 
07:35	73.9	73.9	73.9	83	68.4	1	2	248	0.00	29.737 
07:40	74.0	74.0	74.0	82	68.1	1	4	270	0.00	29.739 
07:45	73.9	73.9	73.9	81	67.7	1	4	270	0.00	29.742 
07:50	73.9	73.9	73.9	81	67.7	1	3	270	0.00	29.744 
07:55	73.7	73.7	73.7	81	67.5	0	2	248	0.00	29.742 
08:00	73.7	73.7	73.7	82	67.9	0	2	248	0.00	29.747 
08:05	73.5	73.5	73.5	82	67.7	0	2	248	0.00	29.749 
08:10	73.7	73.7	73.7	82	67.9	0	2	248	0.00	29.752 
08:15	73.9	73.9	73.9	81	67.7	0	2	248	0.00	29.748 
08:20	74.0	74.0	74.0	80	67.4	1	2	248	0.00	29.745 
08:25	74.0	74.0	74.0	79	67.1	1	3	248	0.00	29.744 
08:30	74.4	74.4	74.4	79	67.4	1	3	248	0.00	29.744 
08:35	74.4	74.4	74.4	79	67.4	1	4	225	0.00	29.747 
08:40	74.6	74.6	74.6	78	67.3	1	4	225	0.00	29.749 
08:45	74.6	74.6	74.6	78	67.3	1	2	225	0.00	29.745 
08:50	74.7	74.7	74.7	77	67.0	1	2	248	0.00	29.742 
08:55	74.9	74.9	74.9	77	67.2	1	4	292	0.00	29.741 
09:00	75.1	75.1	76.1	77	67.4	1	3	248	0.00	29.739 
09:05	75.8	75.8	77.0	76	67.7	1	4	248	0.00	29.740 
09:10	76.1	76.1	77.6	73	66.8	2	5	248	0.00	29.740 
09:15	76.3	76.3	77.8	73	67.0	2	4	270	0.00	29.740 
09:20	76.7	76.7	78.3	74	67.8	1	3	270	0.00	29.736 
09:25	76.7	76.7	78.4	72	67.0	2	6	248	0.00	29.734 
09:30	76.7	76.7	78.4	72	67.0	1	5	248	0.00	29.736 
09:35	76.5	76.5	78.1	72	66.8	1	3	248	0.00	29.737 
09:40	76.3	76.3	77.9	72	66.6	1	3	248	0.00	29.737 
09:45	76.0	76.0	77.5	73	66.7	1	4	270	0.00	29.737 
09:50	76.3	76.3	77.8	74	67.4	1	4	270	0.00	29.737 
09:55	77.2	77.2	79.0	70	66.6	2	4	270	0.00	29.734 
10:00	77.4	77.4	79.3	71	67.2	1	4	270	0.00	29.730 
10:05	77.6	77.6	79.5	70	67.0	1	4	270	0.00	29.733 
10:10	77.7	77.7	79.6	69	66.7	2	5	270	0.00	29.735 
10:15	78.1	78.1	80.1	69	67.1	2	4	292	0.00	29.735 
10:20	78.6	78.6	80.8	70	68.0	1	4	248	0.00	29.731 
10:25	78.8	78.8	80.9	66	66.5	2	5	248	0.00	29.731 
10:30	78.6	78.6	80.7	68	67.1	2	5	270	0.00	29.730 
10:35	78.6	78.6	80.7	67	66.7	2	6	270	0.00	29.728 
10:40	78.3	78.3	80.3	68	66.8	2	5	270	0.00	29.730 
10:45	78.3	78.3	80.3	68	66.8	2	4	270	0.00	29.732 
10:50	78.5	78.5	80.6	68	67.0	2	5	248	0.00	29.731 
10:55	78.6	78.6	80.7	68	67.1	2	5	270	0.00	29.733 
11:00	79.4	79.4	81.8	68	67.9	2	5	248	0.00	29.730 
11:05	80.3	80.3	83.0	67	68.3	2	4	248	0.00	29.728 
11:10	80.9	80.9	83.7	65	68.0	2	5	248	0.00	29.730 
11:15	81.2	81.2	84.1	65	68.3	2	5	248	0.00	29.732 
11:20	81.1	81.1	83.8	64	67.7	2	4	270	0.00	29.732 
11:25	80.9	80.9	83.8	66	68.4	2	4	270	0.00	29.732 
11:30	81.1	81.1	84.1	66	68.6	1	3	270	0.00	29.727 
11:35	81.4	81.4	84.4	65	68.5	2	4	248	0.00	29.724 
11:40	81.6	81.6	84.7	65	68.7	2	5	270	0.00	29.725 
11:45	81.4	81.4	84.3	64	68.0	2	5	270	0.00	29.721 
11:50	81.2	81.2	84.1	65	68.3	2	5	270	0.00	29.722 
11:55	81.4	81.4	84.8	67	69.4	2	5	270	0.00	29.719 
12:00	81.8	81.8	85.1	65	68.9	2	4	270	0.00	29.717 
12:05	81.8	81.8	85.1	65	68.9	2	5	270	0.00	29.717 
12:10	82.0	82.0	85.4	65	69.0	3	6	248	0.00	29.717 
12:15	82.4	82.4	85.8	64	69.0	3	7	270	0.00	29.716 
12:20	83.0	83.0	87.1	65	70.0	3	6	270	0.00	29.715 
12:25	83.0	83.0	86.9	64	69.5	2	5	270	0.00	29.716 
12:30	82.6	82.6	86.4	65	69.6	2	5	270	0.00	29.717 
12:35	82.6	82.6	86.4	65	69.6	1	4	270	0.00	29.716 
12:40	82.2	82.2	85.7	65	69.2	2	6	225	0.00	29.717 
12:45	82.0	82.0	85.6	66	69.5	2	5	270	0.00	29.717 
12:50	82.2	82.2	85.9	66	69.7	2	4	270	0.00	29.718 
12:55	82.2	82.2	85.7	65	69.2	3	7	270	0.00	29.717 
13:00	81.8	81.8	85.1	65	68.9	3	6	270	0.00	29.717 
13:05	82.0	82.0	85.6	66	69.5	3	6	270	0.00	29.717 
13:10	81.8	81.8	85.3	66	69.3	3	12	270	0.00	29.717 
13:15	82.2	82.2	85.9	66	69.7	3	7	270	0.00	29.716 
13:20	82.2	82.2	85.7	65	69.2	3	4	270	0.00	29.716 
13:25	83.0	83.0	86.6	63	69.1	3	8	270	0.00	29.714 
13:30	82.8	82.8	86.3	63	68.9	2	7	270	0.00	29.710 
13:35	82.6	82.6	86.2	64	69.2	3	5	270	0.00	29.714 
13:40	83.2	83.2	86.9	63	69.3	3	6	270	0.00	29.712 
13:45	83.6	83.6	87.6	63	69.6	3	6	270	0.00	29.709 
13:50	83.8	83.8	87.7	62	69.4	3	7	270	0.00	29.704 
13:55	83.6	83.6	87.4	62	69.2	2	5	248	0.00	29.702 
14:00	83.6	83.6	87.4	62	69.2	3	6	248	0.00	29.702 
14:05	83.6	83.6	87.6	63	69.6	2	4	270	0.00	29.703 
14:10	84.0	84.0	87.5	60	68.6	3	6	270	0.00	29.701 
14:15	83.8	83.8	86.9	59	67.9	2	6	270	0.00	29.700 
14:20	84.0	84.0	87.8	61	69.1	3	4	270	0.00	29.700 
14:25	84.3	84.3	88.3	61	69.4	3	6	270	0.00	29.699 
14:30	84.9	84.9	89.4	61	69.9	3	6	270	0.00	29.693 
14:35	85.5	85.5	90.2	60	70.0	2	5	248	0.00	29.693 
14:40	85.7	85.7	90.2	59	69.7	3	6	270	0.00	29.686 
14:45	85.1	85.1	89.4	60	69.6	2	4	248	0.00	29.686 
14:50	84.1	84.1	87.7	60	68.7	2	7	270	0.00	29.686 
14:55	84.1	84.1	88.2	62	69.6	2	4	270	0.00	29.684 
15:00	84.3	84.3	88.0	60	68.9	2	5	270	0.00	29.684 
15:05	85.1	85.1	89.4	60	69.6	2	5	270	0.00	29.681 
15:10	85.1	85.1	88.8	58	68.6	3	6	270	0.00	29.680 
15:15	84.5	84.5	88.4	60	69.1	2	5	270	0.00	29.674 
15:20	84.9	84.9	88.5	58	68.4	2	5	248	0.00	29.672 
15:25	85.3	85.3	89.2	58	68.8	2	5	270	0.00	29.670 
15:30	85.7	85.7	89.2	56	68.2	2	4	292	0.00	29.670 
15:35	85.7	85.7	89.5	57	68.7	2	6	248	0.00	29.670 
15:40	85.7	85.7	89.2	56	68.2	2	4	270	0.00	29.667 
15:45	85.7	85.7	89.2	56	68.2	2	4	248	0.00	29.663 
15:50	85.5	85.5	89.2	57	68.5	2	4	270	0.00	29.659 
15:55	84.7	84.7	88.1	58	68.3	1	4	292	0.00	29.657 
16:00	84.1	84.1	87.7	60	68.7	1	4	292	0.00	29.659 
16:05	84.0	84.0	87.5	60	68.6	2	4	248	0.00	29.660 
16:10	84.0	84.0	87.8	61	69.1	1	3	248	0.00	29.660 
16:15	83.8	83.8	87.7	62	69.4	1	3	270	0.00	29.658 
16:20	83.6	83.6	87.4	62	69.2	1	3	248	0.00	29.663 
16:25	83.2	83.2	86.9	63	69.3	1	4	248	0.00	29.664 
16:30	83.0	83.0	86.4	62	68.6	2	4	270	0.00	29.662 
16:35	83.0	83.0	86.6	63	69.1	1	4	248	0.00	29.663 
16:40	82.8	82.8	86.3	63	68.9	1	3	270	0.00	29.660 
16:45	82.6	82.6	85.9	63	68.7	1	3	270	0.00	29.658 
16:50	82.8	82.8	86.5	64	69.3	2	5	270	0.00	29.657 
16:55	83.2	83.2	86.7	62	68.8	2	5	270	0.00	29.657 
17:00	83.4	83.4	87.3	63	69.5	2	5	270	0.00	29.657 
17:05	83.8	83.8	87.7	62	69.4	2	7	270	0.00	29.654 
17:10	83.6	83.6	87.1	61	68.7	2	4	270	0.00	29.654 
17:15	83.0	83.0	86.4	62	68.6	2	5	270	0.00	29.655 
17:20	83.0	83.0	86.4	62	68.6	2	5	270	0.00	29.655 
17:25	83.0	83.0	86.6	63	69.1	1	4	270	0.00	29.655 
17:30	83.2	83.2	86.9	63	69.3	2	4	225	0.00	29.655 
17:35	82.6	82.6	84.9	58	66.3	2	4	270	0.00	29.658 
17:40	82.0	82.0	84.6	61	67.2	2	5	292	0.00	29.658 
17:45	81.6	81.6	84.4	63	67.8	1	4	270	0.00	29.658 
17:50	81.2	81.2	83.6	62	66.9	2	5	270	0.00	29.661 
17:55	80.9	80.9	83.2	62	66.6	1	5	270	0.00	29.663 
18:00	80.7	80.7	83.1	63	66.9	2	5	270	0.00	29.661 
18:05	80.5	80.5	82.9	64	67.2	1	4	270	0.00	29.662 
18:10	80.5	80.5	83.1	65	67.6	1	3	292	0.00	29.662 
18:15	80.3	80.3	82.8	65	67.4	1	3	248	0.00	29.666 
18:20	80.3	80.3	82.8	65	67.4	1	3	248	0.00	29.665 
18:25	80.3	80.3	82.8	65	67.4	1	3	292	0.00	29.664 
18:30	80.1	80.1	82.5	65	67.2	1	3	270	0.00	29.667 
18:35	80.1	80.1	82.5	65	67.2	1	4	270	0.00	29.667 
18:40	80.1	80.1	82.5	65	67.2	1	3	248	0.00	29.662 
18:45	80.1	80.1	82.5	65	67.2	1	2	248	0.00	29.662 
18:50	80.1	80.1	82.6	66	67.7	0	2	248	0.00	29.662 
18:55	79.9	79.9	82.2	65	67.1	1	4	292	0.00	29.660 
19:00	79.9	79.9	82.2	65	67.1	1	3	270	0.00	29.661 
19:05	79.9	79.9	82.3	66	67.5	1	3	270	0.00	29.659 
19:10	79.9	79.9	82.3	66	67.5	1	3	270	0.00	29.660 
19:15	79.8	79.8	82.3	67	67.8	1	2	270	0.00	29.659 
19:20	79.8	79.8	82.3	67	67.8	1	2	270	0.00	29.660 
19:25	79.6	79.6	82.1	68	68.1	1	2	270	0.00	29.661 
19:30	79.6	79.6	82.1	68	68.1	1	3	270	0.00	29.662 
19:35	79.4	79.4	81.8	68	67.9	1	3	270	0.00	29.667 
19:40	79.4	79.4	81.9	69	68.3	1	2	270	0.00	29.666 
19:45	79.0	79.0	81.3	69	67.9	1	3	270	0.00	29.662 
19:50	78.8	78.8	81.1	70	68.2	1	2	270	0.00	29.666 
19:55	78.8	78.8	81.1	70	68.2	1	3	270	0.00	29.673 
20:00	78.6	78.6	80.9	71	68.4	0	2	270	0.00	29.674 
20:05	78.3	78.3	80.5	71	68.1	1	3	270	0.00	29.674 
20:10	78.3	78.3	80.5	72	68.5	0	2	270	0.00	29.675 
20:15	78.1	78.1	80.2	72	68.3	1	3	270	0.00	29.677 
20:20	77.9	77.9	79.9	72	68.1	1	2	248	0.00	29.680 
20:25	77.7	77.7	79.7	72	67.9	0	1	248	0.00	29.679 
20:30	77.6	77.6	79.5	72	67.8	0	2	248	0.00	29.682 
20:35	77.6	77.6	79.5	73	68.2	0	2	248	0.00	29.685 
20:40	77.4	77.4	79.3	73	68.0	0	1	248	0.00	29.689 
20:45	77.2	77.2	79.0	73	67.9	0	2	248	0.00	29.691 
20:50	77.0	77.0	78.7	74	68.1	0	2	248	0.00	29.693 
20:55	76.8	76.8	78.4	74	67.9	1	3	248	0.00	29.693 
21:00	76.8	76.8	78.4	74	67.9	1	3	248	0.00	29.694 
21:05	76.7	76.7	78.3	74	67.8	1	3	292	0.00	29.692 
21:10	76.5	76.5	78.0	75	68.0	1	2	292	0.00	29.692 
21:15	76.3	76.3	77.7	76	68.2	0	1	292	0.00	29.700 
21:20	76.1	76.1	77.4	76	68.0	0	1	292	0.00	29.703 
21:25	76.0	76.0	77.2	77	68.3	0	0	---	0.00	29.704 
21:30	75.8	75.8	76.9	78	68.4	0	1	292	0.00	29.703 
21:35	75.6	75.6	76.6	78	68.2	0	1	292	0.00	29.706 
21:40	75.4	75.4	76.2	79	68.4	0	1	292	0.00	29.706 
21:45	75.3	75.3	76.1	79	68.3	0	1	292	0.00	29.707 
21:50	75.3	75.3	76.1	79	68.3	0	1	292	0.00	29.707 
21:55	75.3	75.3	76.0	80	68.7	0	1	292	0.00	29.707 
22:00	75.1	75.1	75.7	80	68.5	0	0	---	0.00	29.706 
22:05	75.1	75.1	75.7	80	68.5	0	1	292	0.00	29.705 
22:10	74.9	74.9	74.9	80	68.3	0	0	---	0.00	29.705 
22:15	74.7	74.7	74.7	80	68.1	0	0	---	0.00	29.704 
22:20	74.6	74.6	74.6	81	68.4	0	1	292	0.00	29.702 
22:25	74.6	74.6	74.6	81	68.4	0	1	292	0.00	29.701 
22:30	74.6	74.6	74.6	81	68.4	0	1	292	0.00	29.699 
22:35	74.7	74.7	74.7	81	68.5	0	1	270	0.00	29.700 
22:40	74.7	74.7	74.7	80	68.1	0	1	270	0.00	29.699 
22:45	74.7	74.7	74.7	80	68.1	0	1	270	0.00	29.698 
22:50	74.9	74.9	74.9	80	68.3	1	2	270	0.00	29.701 
22:55	75.1	75.1	75.8	79	68.1	0	2	270	0.00	29.704 
23:00	75.1	75.1	76.0	78	67.8	1	3	248	0.00	29.703 
23:05	75.1	75.1	76.0	78	67.8	1	3	248	0.00	29.702 
23:10	74.9	74.9	74.9	78	67.6	1	3	90	0.00	29.696 
23:15	74.9	74.9	74.9	78	67.6	0	1	90	0.00	29.697 
23:20	74.6	74.6	74.6	79	67.6	0	2	90	0.00	29.695 
23:25	74.6	74.6	74.6	79	67.6	0	2	90	0.00	29.697 
23:30	74.4	74.4	74.4	79	67.4	1	2	90	0.00	29.699 
23:35	74.4	74.4	74.4	79	67.4	0	2	90	0.00	29.698 
23:40	74.2	74.2	74.2	79	67.3	0	1	90	0.00	29.699 
23:45	74.0	74.0	74.0	79	67.1	0	1	90	0.00	29.700 
23:50	73.9	73.9	73.9	80	67.3	0	2	90	0.00	29.700 
23:55	73.9	73.9	73.9	80	67.3	0	2	90	0.00	29.699 

CoCoRaHS
IN-AL-39
A2 Web Hosting
Creative Commons License
GoDaddy
Look for:

loaded 2017-12-12 01:41:28 • last modified 2010-11-18 10:43:29
Privacy PolicyDisclaimer
• wx.awcolley.com is powered by PmWiki v.2002016 •
• all content (unless otherwise noted) © 2017 A W Colley